Flight Track Log - Related Links

Times and Time Zones

All times are in EDT time to prevent confusion due to time zone crossing. See the ASQ4976 flight status page for this flight to view local times or setup timezone preferences in your user account.

Time Position Orientation Groundspeed Altitude Reporting Facility
EDT Latitude Longitude Course Direction KTS MPH feet Rate Location/Type
Sat 01:04:15 PM 42.7278 -73.8081 213° Southwest 151 174 1,300  Level Boston Center
Sat 01:04:46 PM 42.7089 -73.8244 213° Southwest 160 184 2,400 1,917 Climbing Boston Center
Sat 01:05:27 PM 42.6978 -73.8611 248° West 200 230 3,600 1,604 Climbing Boston Center
Sat 01:06:27 PM 42.7453 -73.9017 328° Northwest 206 237 5,100 2,250 Climbing Boston Center
Sat 01:07:27 PM 42.8322 -73.9433 341° North 234 269 8,100 2,500 Climbing Boston Center
Sat 01:08:39 PM 42.9047 -73.9819 339° North 262 302 10,600 2,227 Climbing Boston Center
Sat 01:09:39 PM 42.9553 -74.0911 302° West 268 308 13,000 2,150 Climbing Boston Center
Sat 01:10:39 PM 42.9519 -74.1789 267° West 266 306 14,900 1,950 Climbing Boston Center
Sat 01:11:39 PM 42.8686 -74.1794 180° South 213 245 16,900 1,450 Climbing Boston Center
Sat 01:12:39 PM 42.7875 -74.1575 169° South 322 371 17,800 1,250 Climbing Boston Center
Sat 01:13:39 PM 42.6794 -74.1375 172° South 339 390 19,400 1,750 Climbing Boston Center
Sat 01:14:39 PM 42.5819 -74.1178 172° South 361 415 21,300 1,700 Climbing Boston Center
Sat 01:15:39 PM 42.4800 -74.0953 171° South 366 421 22,800 1,350 Climbing Boston Center
Sat 01:16:39 PM 42.3742 -74.0700 170° South 377 434 24,000 1,100 Climbing Boston Center
Sat 01:17:39 PM 42.2661 -74.0447 170° South 388 447 25,000 1,000 Climbing Boston Center
Sat 01:18:39 PM 42.1556 -74.0419 179° South 399 459 26,000 909 Climbing Boston Center
Sat 01:19:51 PM 42.0408 -74.0475 182° South 404 465 27,000 988 Climbing Boston Center
Sat 01:21:29 PM 41.8258 -74.0583 182° South 424 488 28,800 1,208 Climbing New York Center
Sat 01:22:30 PM 41.7092 -74.0664 183° South 424 488 30,200 1,350 Climbing New York Center
Sat 01:23:29 PM 41.6097 -74.1169 201° Southwest 401 461 31,500 1,150 Climbing New York Center
Sat 01:24:30 PM 41.5300 -74.2100 221° Southwest 379 436 32,500 984 Climbing New York Center
Sat 01:25:31 PM 41.4464 -74.2997 219° Southwest 386 444 33,500 1,008 Climbing New York Center
Sat 01:26:29 PM 41.3622 -74.3922 220° Southwest 393 452 34,500 966 Climbing New York Center
Sat 01:27:29 PM 41.2786 -74.4678 214° Southwest 398 458 35,400 744 Climbing New York Center
Sat 01:28:30 PM 41.1967 -74.5542 218° Southwest 398 458 36,000 295 Climbing New York Center
Sat 01:29:31 PM 41.1106 -74.6483 219° Southwest 398 458 36,000  Level New York Center
Sat 01:30:31 PM 41.0239 -74.7425 219° Southwest 403 464 36,000  Level New York Center
Sat 01:31:31 PM 40.9333 -74.8333 217° Southwest 408 470 36,000  Level New York Center
Sat 01:32:29 PM 40.8469 -74.9214 218° Southwest 408 470 36,000  Level New York Center
Sat 01:33:31 PM 40.7647 -75.0069 218° Southwest 408 470 36,000  Level New York Center
Sat 01:34:29 PM 40.6694 -75.1078 219° Southwest 403 464 36,000  Level New York Center
Sat 01:35:29 PM 40.5850 -75.1925 217° Southwest 403 464 36,000  Level New York Center
Sat 01:36:30 PM 40.4983 -75.2797 217° Southwest 403 464 36,000  Level New York Center
Sat 01:37:31 PM 40.4136 -75.3697 219° Southwest 398 458 36,000  Level New York Center
Sat 01:38:29 PM 40.3333 -75.4514 218° Southwest 386 444 36,000  Level New York Center
Sat 01:39:30 PM 40.2508 -75.5356 218° Southwest 386 444 36,000  Level New York Center
Sat 01:40:31 PM 40.1861 -75.6397 231° Southwest 371 427 36,000  Level New York Center
Sat 01:41:31 PM 40.1314 -75.7500 237° Southwest 371 427 36,000  Level New York Center
Sat 01:42:29 PM 40.0747 -75.8600 236° Southwest 371 427 36,000  Level New York Center
Sat 01:43:28 PM 40.0197 -75.9725 237° Southwest 371 427 36,000  Level New York Center
Sat 01:44:29 PM 39.9628 -76.0792 235° Southwest 371 427 36,000  Level New York Center
Sat 01:45:30 PM 39.9075 -76.1942 238° Southwest 371 427 36,000  Level New York Center
Sat 01:46:31 PM 39.8486 -76.2950 233° Southwest 382 440 36,000  Level New York Center
Sat 01:47:29 PM 39.7972 -76.4100 240° Southwest 382 440 36,000  Level New York Center
Sat 01:48:30 PM 39.7803 -76.5464 261° West 370 426 36,000  Level New York Center
Sat 01:49:31 PM 39.7631 -76.6828 261° West 381 438 36,000  Level New York Center
Sat 01:49:58 PM 39.7497 -76.7600 257° West 381 438 36,000  Level Washington Center
Sat 01:50:59 PM 39.7108 -76.8836 248° West 370 426 36,000  Level Washington Center
Sat 01:52:00 PM 39.6267 -76.9708 219° Southwest 363 418 36,000  Level Washington Center
Sat 01:52:58 PM 39.5403 -77.0500 215° Southwest 373 429 36,000  Level Washington Center
Sat 01:53:58 PM 39.4517 -77.1317 215° Southwest 383 441 36,000  Level Washington Center
Sat 01:54:59 PM 39.3631 -77.2103 214° Southwest 394 453 36,000  Level Washington Center
Sat 01:56:00 PM 39.2767 -77.2914 216° Southwest 394 453 36,000  Level Washington Center
Sat 01:57:00 PM 39.1878 -77.3725 215° Southwest 394 453 36,000  Level Washington Center
Sat 01:58:00 PM 39.1011 -77.4506 215° Southwest 389 448 36,000  Level Washington Center
Sat 01:58:59 PM 39.0144 -77.5286 215° Southwest 389 448 36,000  Level Washington Center
Sat 02:00:00 PM 38.9383 -77.5986 216° Southwest 389 448 36,000  Level Washington Center
Sat 02:01:00 PM 38.8408 -77.6864 215° Southwest 389 448 36,000  Level Washington Center
Sat 02:01:59 PM 38.7606 -77.7589 215° Southwest 389 448 36,000  Level Washington Center
Sat 02:03:00 PM 38.6736 -77.8358 215° Southwest 399 459 36,000  Level Washington Center
Sat 02:04:00 PM 38.6031 -77.9269 225° Southwest 384 442 36,000  Level Washington Center
Sat 02:04:58 PM 38.5447 -78.0286 234° Southwest 367 422 36,000  Level Washington Center
Sat 02:05:59 PM 38.4886 -78.1247 233° Southwest 362 417 36,000  Level Washington Center
Sat 02:06:59 PM 38.4322 -78.2208 233° Southwest 356 410 36,000  Level Washington Center
Sat 02:08:00 PM 38.3781 -78.3144 234° Southwest 350 403 36,000  Level Washington Center
Sat 02:09:00 PM 38.3217 -78.4075 232° Southwest 350 403 36,000  Level Washington Center
Sat 02:09:58 PM 38.2672 -78.5008 233° Southwest 340 391 36,000  Level Washington Center
Sat 02:10:58 PM 38.2172 -78.5914 235° Southwest 328 377 36,000 198 Level Washington Center
Sat 02:11:59 PM 38.1583 -78.6867 232° Southwest 328 377 36,400 541 Climbing Washington Center
Sat 02:13:00 PM 38.1039 -78.7819 234° Southwest 328 377 37,100 706 Climbing Washington Center
Sat 02:13:58 PM 38.0492 -78.8694 232° Southwest 333 383 37,800 454 Climbing Washington Center
Sat 02:14:59 PM 38.0011 -78.9517 233° Southwest 333 383 38,000 100 Climbing Washington Center
Sat 02:15:58 PM 37.9464 -79.0414 232° Southwest 338 389 38,000  Level Washington Center
Sat 02:16:58 PM 37.8875 -79.1308 230° Southwest 338 389 38,000  Level Washington Center
Sat 02:17:59 PM 37.8264 -79.2172 228° Southwest 338 389 38,000  Level Washington Center
Sat 02:19:00 PM 37.7589 -79.3114 228° Southwest 333 383 38,000  Level Washington Center
Sat 02:19:58 PM 37.6958 -79.3975 227° Southwest 334 384 38,000  Level Washington Center
Sat 02:20:58 PM 37.6392 -79.4706 226° Southwest 339 390 38,000  Level Washington Center
Sat 02:22:00 PM 37.5692 -79.5692 228° Southwest 334 384 38,000  Level Washington Center
Sat 02:22:59 PM 37.5125 -79.6447 227° Southwest 334 384 38,000  Level Washington Center
Sat 02:24:00 PM 37.4425 -79.7406 227° Southwest 334 384 38,000  Level Washington Center
Sat 02:24:58 PM 37.3786 -79.8311 228° Southwest 341 392 38,000  Level Washington Center
Sat 02:25:58 PM 37.3172 -79.9139 227° Southwest 341 392 38,000  Level Washington Center
Sat 02:28:10 PM 37.1872 -80.0842 226° Southwest 320 368 38,000  Level Atlanta Center
Sat 02:29:10 PM 37.1272 -80.1653 227° Southwest 325 374 38,000  Level Atlanta Center
Sat 02:30:10 PM 37.0594 -80.2597 228° Southwest 332 382 38,000  Level Atlanta Center
Sat 02:31:10 PM 36.9953 -80.3408 225° Southwest 332 382 38,000  Level Atlanta Center
Sat 02:32:10 PM 36.9331 -80.4242 227° Southwest 332 382 38,000  Level Atlanta Center
Sat 02:33:10 PM 36.8689 -80.5100 227° Southwest 327 376 38,000  Level Atlanta Center
Sat 02:34:10 PM 36.8125 -80.5853 227° Southwest 327 376 38,000  Level Atlanta Center
Sat 02:35:10 PM 36.7422 -80.6814 228° Southwest 327 376 38,000  Level Atlanta Center
Sat 02:36:10 PM 36.6900 -80.7536 228° Southwest 321 369 38,000  Level Atlanta Center
Sat 02:37:10 PM 36.6256 -80.8389 227° Southwest 328 377 38,000  Level Atlanta Center
Sat 02:38:10 PM 36.5631 -80.9217 227° Southwest 328 377 38,000  Level Atlanta Center
Sat 02:39:10 PM 36.4983 -81.0069 227° Southwest 328 377 38,000  Level Atlanta Center
Sat 02:40:10 PM 36.4378 -81.0892 228° Southwest 328 377 38,000  Level Atlanta Center
Sat 02:41:10 PM 36.3669 -81.1819 227° Southwest 328 377 38,000  Level Atlanta Center
Sat 02:42:10 PM 36.3044 -81.2667 228° Southwest 328 377 38,000  Level Atlanta Center
Sat 02:43:10 PM 36.2372 -81.3461 224° Southwest 328 377 38,000  Level Atlanta Center
Sat 02:44:10 PM 36.1744 -81.4331 228° Southwest 328 377 38,000  Level Atlanta Center
Sat 02:45:10 PM 36.1117 -81.5175 227° Southwest 334 384 38,000  Level Atlanta Center
Sat 02:46:10 PM 36.0444 -81.6042 226° Southwest 334 384 38,000  Level Atlanta Center
Sat 02:47:10 PM 35.9772 -81.6883 225° Southwest 334 384 38,000 -300 Level Atlanta Center
Sat 02:48:10 PM 35.9122 -81.7747 227° Southwest 334 384 37,400 -800 Descending Atlanta Center
Sat 02:49:10 PM 35.8408 -81.8664 226° Southwest 352 405 36,400 -1,050 Descending Atlanta Center
Sat 02:50:10 PM 35.7714 -81.9553 226° Southwest 357 411 35,300 -700 Descending Atlanta Center
Sat 02:51:10 PM 35.7019 -82.0442 226° Southwest 357 411 35,000 -150 Descending Atlanta Center
Sat 02:52:10 PM 35.6325 -82.1328 226° Southwest 357 411 35,000  Level Atlanta Center
Sat 02:53:10 PM 35.5628 -82.2186 225° Southwest 357 411 35,000 -300 Level Atlanta Center
Sat 02:54:10 PM 35.4933 -82.3067 226° Southwest 357 411 34,400 -500 Descending Atlanta Center
Sat 02:55:10 PM 35.4275 -82.3819 223° Southwest 357 411 34,000 -600 Descending Atlanta Center
Sat 02:56:10 PM 35.3514 -82.4650 222° Southwest 367 422 33,200 -900 Descending Atlanta Center
Sat 02:57:10 PM 35.2753 -82.5531 223° Southwest 372 428 32,200 -1,000 Descending Atlanta Center
Sat 02:58:10 PM 35.2011 -82.6331 221° Southwest 372 428 31,200 -600 Descending Atlanta Center
Sat 02:59:10 PM 35.1228 -82.7208 223° Southwest 372 428 31,000 -500 Descending Atlanta Center
Sat 03:00:10 PM 35.0361 -82.8136 221° Southwest 377 434 30,200 -1,200 Descending Atlanta Center
Sat 03:01:10 PM 34.9536 -82.9036 222° Southwest 391 450 28,600 -1,550 Descending Atlanta Center
Sat 03:02:10 PM 34.8708 -82.9958 222° Southwest 397 457 27,100 -1,550 Descending Atlanta Center
Sat 03:03:10 PM 34.7797 -83.0878 220° Southwest 413 475 25,500 -1,750 Descending Atlanta Center
Sat 03:04:10 PM 34.6992 -83.1822 224° Southwest 419 482 23,600 -1,850 Descending Atlanta Center
Sat 03:05:10 PM 34.6161 -83.2689 221° Southwest 407 468 21,800 -1,800 Descending Atlanta Center
Sat 03:06:10 PM 34.5394 -83.3581 224° Southwest 395 455 20,000 -1,800 Descending Atlanta Center
Sat 03:07:10 PM 34.4606 -83.4417 221° Southwest 385 443 18,200 -1,850 Descending Atlanta Center
Sat 03:08:10 PM 34.3881 -83.5228 223° Southwest 373 429 16,300 -1,850 Descending Atlanta Center
Sat 03:09:10 PM 34.3111 -83.6036 221° Southwest 367 422 14,500 -1,800 Descending Atlanta Center
Sat 03:10:10 PM 34.2383 -83.6794 221° Southwest 357 411 12,700 -1,250 Descending Atlanta Center
Sat 03:11:10 PM 34.1739 -83.7500 222° Southwest 357 411 12,000 -350 Descending Atlanta Center
Sat 03:12:10 PM 34.1031 -83.8281 222° Southwest 351 404 12,000 -150 Level Atlanta Center
Sat 03:13:10 PM 34.0342 -83.9008 221° Southwest 340 391 11,700 -735 Descending Atlanta Center
Sat 03:13:48 PM 33.9833 -83.9333 208° Southwest 275 316 10,800 -1,435 Descending Atlanta TRACON
Sat 03:14:42 PM 33.9167 -83.9333 180° South 283 326 9,500 -1,158 Descending Atlanta TRACON
Sat 03:15:42 PM 33.8333 -83.9333 180° South 281 323 8,600 -886 Descending Atlanta TRACON
Sat 03:16:10 PM 33.8025 -83.9314 177° South 279 321 8,200 -682 Descending Atlanta Center
Sat 03:17:10 PM 33.7233 -83.9314 180° South 279 321 7,600 -600 Descending Atlanta Center
Sat 03:18:10 PM 33.6564 -83.9514 194° South 279 321 7,000 -300 Descending Atlanta Center
Sat 03:19:10 PM 33.6294 -84.0189 244° Southwest 226 260 7,000 -300 Level Atlanta Center
Sat 03:20:10 PM 33.6314 -84.0886 272° West 212 244 6,400 -987 Descending Atlanta Center
Sat 03:21:42 PM 33.6333 -84.1833 271° West 201 231 4,500 -1,145 Descending Atlanta TRACON
Sat 03:22:42 PM 33.6333 -84.2500 270° West 201 231 3,500 -1,000 Descending Atlanta TRACON
Sat 03:23:42 PM 33.6333 -84.3167 270° West 181 208 2,500 -850 Descending Atlanta TRACON
Sat 03:24:42 PM 33.6333 -84.3667 270° West 141 162 1,800 -700 Descending Atlanta TRACON
Sat 03:26:00 PM 33.6367 -84.4279 234° Southwest  Level Estimated
Sat 03:33:00 PM 33.6367 -84.4279 64° Northeast  Level Estimated
Sat 03:34:00 PM 33.6367 -84.4279 64° Northeast  Level Estimated

Login

Don't have an account? Register now (free) for customized features, flight alerts, and more!